Portada
METAR-TAF:

METAR-TAF

Aeropuertos :

Waukegan Regional Airport

Waukegan, Illinois, Estados Unidos

latitud: 42-25N, longitud: 087-52W, altitud: 222 m

Observación

El informe se hizo hace 36 minutos, a las 18:51 UTC
Viento 15 kt del oeste-suroeste con ráfagas de 22 kt
Temperatura 33°C
Humedad 41%
Presión 1022 hPa
Visibilidad: 16.1 km
Escasas nubes a una altura de 5500 ft

METAR: KUGN 191851Z COR 24015G22KT 10SM FEW055 33/18 A3018 RMK AO2 PK WND 23027/1811 SLP203 T03330178

Hora: 14:27 (19:27 UTC)


TAF: falta

Observaciones y pronósticos meteorológicos de más de 4000 aeropuertos (mensajes METAR y TAF).

Los puntos amarillos y rojos representan las estaciones disponibles.

Ponga el ratón en el punto deseado para ver el nombre de la estación.

Haga clic para ver las observaciones y los pronósticos meteorológicos.

Para cambiar el mapa : haga clic en los botones verdes con una cruz de color negro para hacer un zoom, en el botón verde con un guión para alejar o en las flechas verdes para mapas adyacentes.


METAR-TAF: